sensor_id;sensor_type;location;lat;lon;timestamp;P1;durP1;ratioP1;P2;durP2;ratioP2
6755;SDS011;3415;51.148;7.014;2022-12-07T00:01:47;29.47;;;15.00;;
6755;SDS011;3415;51.148;7.014;2022-12-07T00:04:14;24.63;;;12.63;;
6755;SDS011;3415;51.148;7.014;2022-12-07T00:06:45;25.50;;;12.40;;
6755;SDS011;3415;51.148;7.014;2022-12-07T00:09:18;29.70;;;13.67;;
6755;SDS011;3415;51.148;7.014;2022-12-07T00:11:48;29.27;;;14.90;;
6755;SDS011;3415;51.148;7.014;2022-12-07T00:14:16;28.50;;;13.33;;
6755;SDS011;3415;51.148;7.014;2022-12-07T00:16:44;27.10;;;14.77;;
6755;SDS011;3415;51.148;7.014;2022-12-07T00:19:12;38.63;;;16.03;;
6755;SDS011;3415;51.148;7.014;2022-12-07T00:21:40;30.83;;;15.73;;
6755;SDS011;3415;51.148;7.014;2022-12-07T00:24:09;31.77;;;14.80;;
6755;SDS011;3415;51.148;7.014;2022-12-07T00:26:38;28.67;;;14.63;;
6755;SDS011;3415;51.148;7.014;2022-12-07T00:29:07;29.53;;;14.60;;
6755;SDS011;3415;51.148;7.014;2022-12-07T00:31:41;29.47;;;15.13;;
6755;SDS011;3415;51.148;7.014;2022-12-07T00:34:12;27.80;;;14.40;;
6755;SDS011;3415;51.148;7.014;2022-12-07T00:36:42;33.50;;;15.77;;
6755;SDS011;3415;51.148;7.014;2022-12-07T00:39:10;31.47;;;16.30;;
6755;SDS011;3415;51.148;7.014;2022-12-07T00:41:37;32.23;;;14.83;;
6755;SDS011;3415;51.148;7.014;2022-12-07T00:44:04;29.43;;;14.20;;
6755;SDS011;3415;51.148;7.014;2022-12-07T00:46:31;39.67;;;16.70;;
6755;SDS011;3415;51.148;7.014;2022-12-07T00:48:59;28.80;;;14.73;;
6755;SDS011;3415;51.148;7.014;2022-12-07T00:51:26;25.57;;;14.97;;
6755;SDS011;3415;51.148;7.014;2022-12-07T00:53:53;31.17;;;15.17;;
6755;SDS011;3415;51.148;7.014;2022-12-07T00:56:22;35.97;;;17.17;;
6755;SDS011;3415;51.148;7.014;2022-12-07T00:58:52;29.60;;;16.20;;
6755;SDS011;3415;51.148;7.014;2022-12-07T01:01:21;30.90;;;15.30;;
6755;SDS011;3415;51.148;7.014;2022-12-07T01:03:49;28.87;;;15.93;;
6755;SDS011;3415;51.148;7.014;2022-12-07T01:06:16;31.90;;;17.63;;
6755;SDS011;3415;51.148;7.014;2022-12-07T01:08:45;43.83;;;16.57;;
6755;SDS011;3415;51.148;7.014;2022-12-07T01:11:13;32.57;;;15.87;;
6755;SDS011;3415;51.148;7.014;2022-12-07T01:13:43;35.27;;;17.00;;
6755;SDS011;3415;51.148;7.014;2022-12-07T01:16:11;33.80;;;16.53;;
6755;SDS011;3415;51.148;7.014;2022-12-07T01:18:40;38.77;;;17.87;;
6755;SDS011;3415;51.148;7.014;2022-12-07T01:21:09;32.07;;;17.83;;
6755;SDS011;3415;51.148;7.014;2022-12-07T01:23:38;33.40;;;15.80;;
6755;SDS011;3415;51.148;7.014;2022-12-07T01:26:06;36.63;;;18.50;;
6755;SDS011;3415;51.148;7.014;2022-12-07T01:28:36;35.90;;;16.70;;
6755;SDS011;3415;51.148;7.014;2022-12-07T01:31:05;32.43;;;16.80;;
6755;SDS011;3415;51.148;7.014;2022-12-07T01:33:36;36.57;;;16.17;;
6755;SDS011;3415;51.148;7.014;2022-12-07T01:36:05;33.20;;;17.33;;
6755;SDS011;3415;51.148;7.014;2022-12-07T01:38:33;32.63;;;18.63;;
6755;SDS011;3415;51.148;7.014;2022-12-07T01:41:01;32.97;;;15.00;;
6755;SDS011;3415;51.148;7.014;2022-12-07T01:43:29;39.43;;;18.33;;
6755;SDS011;3415;51.148;7.014;2022-12-07T01:45:59;37.60;;;17.53;;
6755;SDS011;3415;51.148;7.014;2022-12-07T01:48:28;36.70;;;18.37;;
6755;SDS011;3415;51.148;7.014;2022-12-07T01:51:00;31.70;;;17.80;;
6755;SDS011;3415;51.148;7.014;2022-12-07T01:53:31;31.70;;;16.10;;
6755;SDS011;3415;51.148;7.014;2022-12-07T01:56:02;33.67;;;17.60;;
6755;SDS011;3415;51.148;7.014;2022-12-07T01:58:31;34.17;;;17.33;;
6755;SDS011;3415;51.148;7.014;2022-12-07T02:00:58;41.70;;;16.97;;
6755;SDS011;3415;51.148;7.014;2022-12-07T02:03:27;42.63;;;17.53;;
6755;SDS011;3415;51.148;7.014;2022-12-07T02:06:00;34.87;;;17.40;;
6755;SDS011;3415;51.148;7.014;2022-12-07T02:08:27;35.23;;;17.20;;
6755;SDS011;3415;51.148;7.014;2022-12-07T02:10:55;38.37;;;17.73;;
6755;SDS011;3415;51.148;7.014;2022-12-07T02:13:23;35.17;;;17.43;;
6755;SDS011;3415;51.148;7.014;2022-12-07T02:16:04;40.73;;;17.90;;
6755;SDS011;3415;51.148;7.014;2022-12-07T02:18:52;27.20;;;14.63;;
6755;SDS011;3415;51.148;7.014;2022-12-07T02:21:41;36.40;;;17.17;;
6755;SDS011;3415;51.148;7.014;2022-12-07T02:24:15;30.53;;;15.97;;
6755;SDS011;3415;51.148;7.014;2022-12-07T02:27:01;35.83;;;19.60;;
6755;SDS011;3415;51.148;7.014;2022-12-07T02:29:57;36.80;;;18.20;;
6755;SDS011;3415;51.148;7.014;2022-12-07T02:32:27;35.00;;;17.67;;
6755;SDS011;3415;51.148;7.014;2022-12-07T02:35:07;32.30;;;18.63;;
6755;SDS011;3415;51.148;7.014;2022-12-07T02:37:39;32.40;;;17.30;;
6755;SDS011;3415;51.148;7.014;2022-12-07T02:40:16;42.93;;;19.00;;
6755;SDS011;3415;51.148;7.014;2022-12-07T02:42:49;31.63;;;17.17;;
6755;SDS011;3415;51.148;7.014;2022-12-07T02:45:23;43.33;;;19.10;;
6755;SDS011;3415;51.148;7.014;2022-12-07T02:47:53;41.67;;;19.17;;
6755;SDS011;3415;51.148;7.014;2022-12-07T02:50:24;36.73;;;17.60;;
6755;SDS011;3415;51.148;7.014;2022-12-07T02:52:52;35.87;;;16.17;;
6755;SDS011;3415;51.148;7.014;2022-12-07T02:55:20;43.07;;;16.80;;
6755;SDS011;3415;51.148;7.014;2022-12-07T02:57:57;39.97;;;19.50;;
6755;SDS011;3415;51.148;7.014;2022-12-07T03:00:48;33.87;;;17.70;;
6755;SDS011;3415;51.148;7.014;2022-12-07T03:03:23;32.47;;;16.73;;
6755;SDS011;3415;51.148;7.014;2022-12-07T03:05:54;36.10;;;18.23;;
6755;SDS011;3415;51.148;7.014;2022-12-07T03:08:42;38.37;;;18.90;;
6755;SDS011;3415;51.148;7.014;2022-12-07T03:11:19;32.83;;;17.43;;
6755;SDS011;3415;51.148;7.014;2022-12-07T03:13:54;36.07;;;18.50;;
6755;SDS011;3415;51.148;7.014;2022-12-07T03:16:30;30.93;;;16.77;;
6755;SDS011;3415;51.148;7.014;2022-12-07T03:19:02;33.97;;;17.63;;
6755;SDS011;3415;51.148;7.014;2022-12-07T03:21:34;33.77;;;17.50;;
6755;SDS011;3415;51.148;7.014;2022-12-07T03:24:06;38.57;;;17.57;;
6755;SDS011;3415;51.148;7.014;2022-12-07T03:26:38;35.37;;;17.90;;
6755;SDS011;3415;51.148;7.014;2022-12-07T03:29:15;32.97;;;17.90;;
6755;SDS011;3415;51.148;7.014;2022-12-07T03:31:49;37.67;;;19.33;;
6755;SDS011;3415;51.148;7.014;2022-12-07T03:34:21;32.87;;;17.70;;
6755;SDS011;3415;51.148;7.014;2022-12-07T03:36:57;35.83;;;18.40;;
6755;SDS011;3415;51.148;7.014;2022-12-07T03:39:30;34.70;;;17.70;;
6755;SDS011;3415;51.148;7.014;2022-12-07T03:42:02;33.83;;;16.43;;
6755;SDS011;3415;51.148;7.014;2022-12-07T03:44:32;27.87;;;16.73;;
6755;SDS011;3415;51.148;7.014;2022-12-07T03:47:02;30.70;;;15.83;;
6755;SDS011;3415;51.148;7.014;2022-12-07T03:49:37;28.57;;;16.00;;
6755;SDS011;3415;51.148;7.014;2022-12-07T03:52:12;35.47;;;16.80;;
6755;SDS011;3415;51.148;7.014;2022-12-07T03:54:51;32.10;;;17.40;;
6755;SDS011;3415;51.148;7.014;2022-12-07T03:57:24;33.77;;;17.33;;
6755;SDS011;3415;51.148;7.014;2022-12-07T03:59:53;40.63;;;17.50;;
6755;SDS011;3415;51.148;7.014;2022-12-07T04:02:23;26.50;;;16.17;;
6755;SDS011;3415;51.148;7.014;2022-12-07T04:04:51;38.60;;;17.20;;
6755;SDS011;3415;51.148;7.014;2022-12-07T04:07:19;33.90;;;16.03;;
6755;SDS011;3415;51.148;7.014;2022-12-07T04:09:46;32.00;;;17.10;;
6755;SDS011;3415;51.148;7.014;2022-12-07T04:12:13;35.37;;;17.60;;
6755;SDS011;3415;51.148;7.014;2022-12-07T04:14:40;31.60;;;16.87;;
6755;SDS011;3415;51.148;7.014;2022-12-07T04:17:08;31.07;;;17.10;;
6755;SDS011;3415;51.148;7.014;2022-12-07T04:19:36;30.47;;;16.67;;
6755;SDS011;3415;51.148;7.014;2022-12-07T04:22:03;30.63;;;16.97;;
6755;SDS011;3415;51.148;7.014;2022-12-07T04:24:31;29.67;;;16.47;;
6755;SDS011;3415;51.148;7.014;2022-12-07T04:26:58;30.40;;;15.70;;
6755;SDS011;3415;51.148;7.014;2022-12-07T04:29:25;31.57;;;15.10;;
6755;SDS011;3415;51.148;7.014;2022-12-07T04:31:53;33.93;;;14.80;;
6755;SDS011;3415;51.148;7.014;2022-12-07T04:34:20;28.70;;;15.40;;
6755;SDS011;3415;51.148;7.014;2022-12-07T04:36:48;31.90;;;15.23;;
6755;SDS011;3415;51.148;7.014;2022-12-07T04:39:18;31.03;;;15.87;;
6755;SDS011;3415;51.148;7.014;2022-12-07T04:41:47;31.40;;;15.33;;
6755;SDS011;3415;51.148;7.014;2022-12-07T04:44:14;25.37;;;14.67;;
6755;SDS011;3415;51.148;7.014;2022-12-07T04:46:42;24.13;;;13.30;;
6755;SDS011;3415;51.148;7.014;2022-12-07T04:49:10;28.90;;;14.40;;
6755;SDS011;3415;51.148;7.014;2022-12-07T04:51:38;27.40;;;15.70;;
6755;SDS011;3415;51.148;7.014;2022-12-07T04:54:06;26.53;;;15.60;;
6755;SDS011;3415;51.148;7.014;2022-12-07T04:56:33;33.37;;;15.80;;
6755;SDS011;3415;51.148;7.014;2022-12-07T04:59:01;40.83;;;14.83;;
6755;SDS011;3415;51.148;7.014;2022-12-07T05:01:29;36.77;;;13.97;;
6755;SDS011;3415;51.148;7.014;2022-12-07T05:03:57;35.73;;;14.57;;
6755;SDS011;3415;51.148;7.014;2022-12-07T05:06:24;29.83;;;15.00;;
6755;SDS011;3415;51.148;7.014;2022-12-07T05:08:51;27.47;;;14.53;;
6755;SDS011;3415;51.148;7.014;2022-12-07T05:11:19;31.03;;;14.07;;
6755;SDS011;3415;51.148;7.014;2022-12-07T05:14:06;29.13;;;14.77;;
6755;SDS011;3415;51.148;7.014;2022-12-07T05:16:37;26.40;;;14.13;;
6755;SDS011;3415;51.148;7.014;2022-12-07T05:19:05;34.20;;;15.23;;
6755;SDS011;3415;51.148;7.014;2022-12-07T05:21:32;28.33;;;14.03;;
6755;SDS011;3415;51.148;7.014;2022-12-07T05:23:59;24.90;;;13.50;;
6755;SDS011;3415;51.148;7.014;2022-12-07T05:26:28;26.17;;;13.83;;
6755;SDS011;3415;51.148;7.014;2022-12-07T05:28:55;33.00;;;14.23;;
6755;SDS011;3415;51.148;7.014;2022-12-07T05:31:24;23.40;;;12.70;;
6755;SDS011;3415;51.148;7.014;2022-12-07T05:33:52;29.70;;;12.60;;
6755;SDS011;3415;51.148;7.014;2022-12-07T05:36:19;30.63;;;13.23;;
6755;SDS011;3415;51.148;7.014;2022-12-07T05:38:47;24.93;;;13.80;;
6755;SDS011;3415;51.148;7.014;2022-12-07T05:41:14;33.17;;;14.40;;
6755;SDS011;3415;51.148;7.014;2022-12-07T05:44:02;23.17;;;13.77;;
6755;SDS011;3415;51.148;7.014;2022-12-07T05:46:29;26.23;;;14.57;;
6755;SDS011;3415;51.148;7.014;2022-12-07T05:48:57;33.77;;;14.83;;
6755;SDS011;3415;51.148;7.014;2022-12-07T05:51:24;24.10;;;14.57;;
6755;SDS011;3415;51.148;7.014;2022-12-07T05:53:51;36.43;;;14.30;;
6755;SDS011;3415;51.148;7.014;2022-12-07T05:56:18;29.33;;;13.90;;
6755;SDS011;3415;51.148;7.014;2022-12-07T05:58:45;28.77;;;14.10;;
6755;SDS011;3415;51.148;7.014;2022-12-07T06:01:31;29.13;;;13.93;;
6755;SDS011;3415;51.148;7.014;2022-12-07T06:03:58;26.50;;;14.10;;
6755;SDS011;3415;51.148;7.014;2022-12-07T06:06:25;31.50;;;13.90;;
6755;SDS011;3415;51.148;7.014;2022-12-07T06:08:52;24.03;;;13.50;;
6755;SDS011;3415;51.148;7.014;2022-12-07T06:11:19;23.83;;;12.83;;
6755;SDS011;3415;51.148;7.014;2022-12-07T06:14:04;24.00;;;12.87;;
6755;SDS011;3415;51.148;7.014;2022-12-07T06:16:32;31.13;;;12.60;;
6755;SDS011;3415;51.148;7.014;2022-12-07T06:18:59;22.17;;;13.73;;
6755;SDS011;3415;51.148;7.014;2022-12-07T06:21:26;23.70;;;13.07;;
6755;SDS011;3415;51.148;7.014;2022-12-07T06:23:53;21.57;;;12.63;;
6755;SDS011;3415;51.148;7.014;2022-12-07T06:26:21;20.23;;;12.90;;
6755;SDS011;3415;51.148;7.014;2022-12-07T06:28:48;24.80;;;12.53;;
6755;SDS011;3415;51.148;7.014;2022-12-07T06:31:15;19.80;;;11.93;;
6755;SDS011;3415;51.148;7.014;2022-12-07T06:33:44;22.17;;;12.63;;
6755;SDS011;3415;51.148;7.014;2022-12-07T06:36:11;22.17;;;12.13;;
6755;SDS011;3415;51.148;7.014;2022-12-07T06:38:38;24.50;;;12.33;;
6755;SDS011;3415;51.148;7.014;2022-12-07T06:41:05;21.30;;;12.03;;
6755;SDS011;3415;51.148;7.014;2022-12-07T06:43:32;21.63;;;12.50;;
6755;SDS011;3415;51.148;7.014;2022-12-07T06:45:59;30.77;;;11.60;;
6755;SDS011;3415;51.148;7.014;2022-12-07T06:48:26;31.40;;;13.00;;
6755;SDS011;3415;51.148;7.014;2022-12-07T06:50:55;17.77;;;10.83;;
6755;SDS011;3415;51.148;7.014;2022-12-07T06:53:22;21.30;;;12.20;;
6755;SDS011;3415;51.148;7.014;2022-12-07T06:55:49;18.70;;;11.73;;
6755;SDS011;3415;51.148;7.014;2022-12-07T06:58:16;17.80;;;11.00;;
6755;SDS011;3415;51.148;7.014;2022-12-07T07:00:44;22.30;;;11.83;;
6755;SDS011;3415;51.148;7.014;2022-12-07T07:03:11;25.37;;;11.73;;
6755;SDS011;3415;51.148;7.014;2022-12-07T07:05:38;23.27;;;11.93;;
6755;SDS011;3415;51.148;7.014;2022-12-07T07:08:07;23.00;;;13.37;;
6755;SDS011;3415;51.148;7.014;2022-12-07T07:10:34;23.47;;;12.03;;
6755;SDS011;3415;51.148;7.014;2022-12-07T07:13:02;18.20;;;12.17;;
6755;SDS011;3415;51.148;7.014;2022-12-07T07:15:30;21.17;;;11.83;;
6755;SDS011;3415;51.148;7.014;2022-12-07T07:17:58;19.40;;;11.00;;
6755;SDS011;3415;51.148;7.014;2022-12-07T07:20:26;19.00;;;11.03;;
6755;SDS011;3415;51.148;7.014;2022-12-07T07:22:54;17.70;;;10.70;;
6755;SDS011;3415;51.148;7.014;2022-12-07T07:25:24;18.77;;;10.50;;
6755;SDS011;3415;51.148;7.014;2022-12-07T07:27:52;29.93;;;13.70;;
6755;SDS011;3415;51.148;7.014;2022-12-07T07:30:19;27.13;;;12.97;;
6755;SDS011;3415;51.148;7.014;2022-12-07T07:32:48;21.53;;;11.03;;
6755;SDS011;3415;51.148;7.014;2022-12-07T07:35:16;31.53;;;13.70;;
6755;SDS011;3415;51.148;7.014;2022-12-07T07:37:44;29.30;;;11.37;;
6755;SDS011;3415;51.148;7.014;2022-12-07T07:40:11;20.23;;;12.13;;
6755;SDS011;3415;51.148;7.014;2022-12-07T07:42:40;22.93;;;11.37;;
6755;SDS011;3415;51.148;7.014;2022-12-07T07:45:08;22.57;;;11.20;;
6755;SDS011;3415;51.148;7.014;2022-12-07T07:47:36;25.70;;;11.97;;
6755;SDS011;3415;51.148;7.014;2022-12-07T07:50:04;20.13;;;10.80;;
6755;SDS011;3415;51.148;7.014;2022-12-07T07:52:32;23.63;;;10.90;;
6755;SDS011;3415;51.148;7.014;2022-12-07T07:55:00;17.63;;;9.47;;
6755;SDS011;3415;51.148;7.014;2022-12-07T07:57:27;24.33;;;10.60;;
6755;SDS011;3415;51.148;7.014;2022-12-07T07:59:56;22.00;;;10.90;;
6755;SDS011;3415;51.148;7.014;2022-12-07T08:02:23;17.03;;;10.80;;
6755;SDS011;3415;51.148;7.014;2022-12-07T08:04:50;17.43;;;10.67;;
6755;SDS011;3415;51.148;7.014;2022-12-07T08:07:17;20.47;;;10.80;;
6755;SDS011;3415;51.148;7.014;2022-12-07T08:09:44;14.90;;;9.97;;
6755;SDS011;3415;51.148;7.014;2022-12-07T08:12:11;15.37;;;9.20;;
6755;SDS011;3415;51.148;7.014;2022-12-07T08:14:38;15.27;;;9.30;;
6755;SDS011;3415;51.148;7.014;2022-12-07T08:17:06;13.80;;;9.20;;
6755;SDS011;3415;51.148;7.014;2022-12-07T08:19:33;24.30;;;8.67;;
6755;SDS011;3415;51.148;7.014;2022-12-07T08:22:00;14.93;;;9.57;;
6755;SDS011;3415;51.148;7.014;2022-12-07T08:24:28;16.90;;;9.30;;
6755;SDS011;3415;51.148;7.014;2022-12-07T08:26:55;18.17;;;9.53;;
6755;SDS011;3415;51.148;7.014;2022-12-07T08:29:22;16.20;;;9.63;;
6755;SDS011;3415;51.148;7.014;2022-12-07T08:31:49;17.73;;;9.13;;
6755;SDS011;3415;51.148;7.014;2022-12-07T08:34:17;20.53;;;9.67;;
6755;SDS011;3415;51.148;7.014;2022-12-07T08:36:44;15.70;;;9.90;;
6755;SDS011;3415;51.148;7.014;2022-12-07T08:39:11;16.20;;;9.13;;
6755;SDS011;3415;51.148;7.014;2022-12-07T08:41:38;21.93;;;11.27;;
6755;SDS011;3415;51.148;7.014;2022-12-07T08:44:05;17.17;;;8.50;;
6755;SDS011;3415;51.148;7.014;2022-12-07T08:46:33;21.40;;;11.23;;
6755;SDS011;3415;51.148;7.014;2022-12-07T08:49:04;24.50;;;13.00;;
6755;SDS011;3415;51.148;7.014;2022-12-07T08:51:37;14.60;;;9.00;;
6755;SDS011;3415;51.148;7.014;2022-12-07T08:54:05;21.50;;;11.40;;
6755;SDS011;3415;51.148;7.014;2022-12-07T08:56:35;15.53;;;9.20;;
6755;SDS011;3415;51.148;7.014;2022-12-07T08:59:03;17.67;;;10.47;;
6755;SDS011;3415;51.148;7.014;2022-12-07T09:01:30;21.07;;;11.03;;
6755;SDS011;3415;51.148;7.014;2022-12-07T09:03:58;19.97;;;9.10;;
6755;SDS011;3415;51.148;7.014;2022-12-07T09:06:25;14.03;;;9.20;;
6755;SDS011;3415;51.148;7.014;2022-12-07T09:08:54;17.40;;;9.47;;
6755;SDS011;3415;51.148;7.014;2022-12-07T09:11:24;21.43;;;9.50;;
6755;SDS011;3415;51.148;7.014;2022-12-07T09:13:51;15.27;;;8.90;;
6755;SDS011;3415;51.148;7.014;2022-12-07T09:16:18;16.43;;;10.10;;
6755;SDS011;3415;51.148;7.014;2022-12-07T09:18:45;20.23;;;8.10;;
6755;SDS011;3415;51.148;7.014;2022-12-07T09:21:12;15.23;;;9.70;;
6755;SDS011;3415;51.148;7.014;2022-12-07T09:23:40;19.13;;;8.50;;
6755;SDS011;3415;51.148;7.014;2022-12-07T09:26:09;14.90;;;9.37;;
6755;SDS011;3415;51.148;7.014;2022-12-07T09:28:36;15.60;;;7.50;;
6755;SDS011;3415;51.148;7.014;2022-12-07T09:31:04;15.20;;;8.77;;
6755;SDS011;3415;51.148;7.014;2022-12-07T09:33:32;18.33;;;8.90;;
6755;SDS011;3415;51.148;7.014;2022-12-07T09:35:59;16.37;;;8.40;;
6755;SDS011;3415;51.148;7.014;2022-12-07T09:38:26;20.33;;;8.70;;
6755;SDS011;3415;51.148;7.014;2022-12-07T09:40:54;16.63;;;8.80;;
6755;SDS011;3415;51.148;7.014;2022-12-07T09:43:23;14.57;;;7.93;;
6755;SDS011;3415;51.148;7.014;2022-12-07T09:45:52;15.97;;;8.70;;
6755;SDS011;3415;51.148;7.014;2022-12-07T09:48:22;22.23;;;10.00;;
6755;SDS011;3415;51.148;7.014;2022-12-07T09:50:55;26.33;;;9.87;;
6755;SDS011;3415;51.148;7.014;2022-12-07T09:53:26;14.27;;;8.67;;
6755;SDS011;3415;51.148;7.014;2022-12-07T09:55:56;14.63;;;8.87;;
6755;SDS011;3415;51.148;7.014;2022-12-07T09:58:26;15.80;;;8.40;;
6755;SDS011;3415;51.148;7.014;2022-12-07T10:00:55;16.97;;;8.83;;
6755;SDS011;3415;51.148;7.014;2022-12-07T10:03:26;11.90;;;7.70;;
6755;SDS011;3415;51.148;7.014;2022-12-07T10:05:54;18.13;;;7.97;;
6755;SDS011;3415;51.148;7.014;2022-12-07T10:08:24;13.63;;;6.33;;
6755;SDS011;3415;51.148;7.014;2022-12-07T10:10:52;19.53;;;9.37;;
6755;SDS011;3415;51.148;7.014;2022-12-07T10:13:22;29.47;;;12.47;;
6755;SDS011;3415;51.148;7.014;2022-12-07T10:16:02;21.00;;;10.93;;
6755;SDS011;3415;51.148;7.014;2022-12-07T10:18:31;16.70;;;8.97;;
6755;SDS011;3415;51.148;7.014;2022-12-07T10:21:02;19.20;;;8.37;;
6755;SDS011;3415;51.148;7.014;2022-12-07T10:23:37;17.20;;;7.40;;
6755;SDS011;3415;51.148;7.014;2022-12-07T10:26:26;11.37;;;6.43;;
6755;SDS011;3415;51.148;7.014;2022-12-07T10:28:59;11.13;;;6.90;;
6755;SDS011;3415;51.148;7.014;2022-12-07T10:31:30;11.63;;;7.97;;
6755;SDS011;3415;51.148;7.014;2022-12-07T10:33:58;15.13;;;8.10;;
6755;SDS011;3415;51.148;7.014;2022-12-07T10:36:29;13.70;;;7.90;;
6755;SDS011;3415;51.148;7.014;2022-12-07T10:39:02;16.20;;;7.03;;
6755;SDS011;3415;51.148;7.014;2022-12-07T10:41:41;14.77;;;7.50;;
6755;SDS011;3415;51.148;7.014;2022-12-07T10:44:22;16.70;;;7.80;;
6755;SDS011;3415;51.148;7.014;2022-12-07T10:46:54;16.20;;;8.70;;
6755;SDS011;3415;51.148;7.014;2022-12-07T10:52:54;15.27;;;8.93;;
6755;SDS011;3415;51.148;7.014;2022-12-07T10:55:47;12.67;;;7.20;;
6755;SDS011;3415;51.148;7.014;2022-12-07T10:58:51;18.73;;;7.40;;
6755;SDS011;3415;51.148;7.014;2022-12-07T11:01:33;15.50;;;8.40;;
6755;SDS011;3415;51.148;7.014;2022-12-07T11:04:12;19.10;;;8.07;;
6755;SDS011;3415;51.148;7.014;2022-12-07T11:06:49;22.40;;;8.40;;
6755;SDS011;3415;51.148;7.014;2022-12-07T11:09:32;18.67;;;8.70;;
6755;SDS011;3415;51.148;7.014;2022-12-07T11:12:20;22.33;;;8.43;;
6755;SDS011;3415;51.148;7.014;2022-12-07T11:15:01;14.17;;;7.60;;
6755;SDS011;3415;51.148;7.014;2022-12-07T11:17:42;20.40;;;7.67;;
6755;SDS011;3415;51.148;7.014;2022-12-07T11:20:27;13.20;;;7.80;;
6755;SDS011;3415;51.148;7.014;2022-12-07T11:23:04;12.10;;;6.47;;
6755;SDS011;3415;51.148;7.014;2022-12-07T11:25:48;19.70;;;11.77;;
6755;SDS011;3415;51.148;7.014;2022-12-07T11:28:35;12.70;;;6.50;;
6755;SDS011;3415;51.148;7.014;2022-12-07T11:31:24;12.67;;;6.10;;
6755;SDS011;3415;51.148;7.014;2022-12-07T11:34:07;15.47;;;5.87;;
6755;SDS011;3415;51.148;7.014;2022-12-07T11:36:43;13.80;;;6.63;;
6755;SDS011;3415;51.148;7.014;2022-12-07T11:39:16;19.30;;;6.73;;
6755;SDS011;3415;51.148;7.014;2022-12-07T11:41:52;13.43;;;6.60;;
6755;SDS011;3415;51.148;7.014;2022-12-07T11:44:25;18.70;;;6.77;;
6755;SDS011;3415;51.148;7.014;2022-12-07T11:46:59;13.83;;;6.83;;
6755;SDS011;3415;51.148;7.014;2022-12-07T11:49:41;19.27;;;5.80;;
6755;SDS011;3415;51.148;7.014;2022-12-07T11:52:16;18.67;;;8.07;;
6755;SDS011;3415;51.148;7.014;2022-12-07T11:54:52;14.33;;;5.60;;
6755;SDS011;3415;51.148;7.014;2022-12-07T11:57:22;11.53;;;6.23;;
6755;SDS011;3415;51.148;7.014;2022-12-07T11:59:59;9.00;;;5.30;;
6755;SDS011;3415;51.148;7.014;2022-12-07T12:02:32;19.27;;;5.03;;
6755;SDS011;3415;51.148;7.014;2022-12-07T12:05:07;10.53;;;5.50;;
6755;SDS011;3415;51.148;7.014;2022-12-07T12:07:42;7.33;;;4.23;;
6755;SDS011;3415;51.148;7.014;2022-12-07T12:10:16;18.70;;;8.00;;
6755;SDS011;3415;51.148;7.014;2022-12-07T12:12:52;19.17;;;8.23;;
6755;SDS011;3415;51.148;7.014;2022-12-07T12:15:36;6.73;;;4.20;;
6755;SDS011;3415;51.148;7.014;2022-12-07T12:21:27;7.77;;;3.33;;
6755;SDS011;3415;51.148;7.014;2022-12-07T12:23:57;9.63;;;3.43;;
6755;SDS011;3415;51.148;7.014;2022-12-07T12:26:29;12.90;;;4.23;;
6755;SDS011;3415;51.148;7.014;2022-12-07T12:28:59;8.07;;;4.80;;
6755;SDS011;3415;51.148;7.014;2022-12-07T12:31:31;4.50;;;2.93;;
6755;SDS011;3415;51.148;7.014;2022-12-07T12:34:04;17.30;;;4.60;;
6755;SDS011;3415;51.148;7.014;2022-12-07T12:37:08;8.03;;;4.80;;
6755;SDS011;3415;51.148;7.014;2022-12-07T12:52:51;20.00;;;3.93;;
6755;SDS011;3415;51.148;7.014;2022-12-07T12:58:43;10.73;;;6.20;;
6755;SDS011;3415;51.148;7.014;2022-12-07T13:04:31;9.07;;;4.30;;
6755;SDS011;3415;51.148;7.014;2022-12-07T13:25:29;5.67;;;3.57;;
6755;SDS011;3415;51.148;7.014;2022-12-07T13:28:07;15.13;;;8.40;;
6755;SDS011;3415;51.148;7.014;2022-12-07T13:30:44;8.87;;;3.90;;
6755;SDS011;3415;51.148;7.014;2022-12-07T13:33:20;12.57;;;7.80;;
6755;SDS011;3415;51.148;7.014;2022-12-07T13:35:47;6.17;;;4.40;;
6755;SDS011;3415;51.148;7.014;2022-12-07T13:38:24;8.90;;;3.57;;
6755;SDS011;3415;51.148;7.014;2022-12-07T13:41:14;17.97;;;3.30;;
6755;SDS011;3415;51.148;7.014;2022-12-07T13:43:44;6.80;;;2.90;;
6755;SDS011;3415;51.148;7.014;2022-12-07T13:46:15;14.80;;;3.07;;
6755;SDS011;3415;51.148;7.014;2022-12-07T13:48:44;6.20;;;2.80;;
6755;SDS011;3415;51.148;7.014;2022-12-07T13:51:18;10.10;;;3.50;;
6755;SDS011;3415;51.148;7.014;2022-12-07T13:53:50;8.57;;;2.77;;
6755;SDS011;3415;51.148;7.014;2022-12-07T13:56:20;8.77;;;3.50;;
6755;SDS011;3415;51.148;7.014;2022-12-07T13:58:50;7.20;;;3.57;;
6755;SDS011;3415;51.148;7.014;2022-12-07T14:01:17;9.77;;;4.67;;
6755;SDS011;3415;51.148;7.014;2022-12-07T14:03:44;6.90;;;3.30;;
6755;SDS011;3415;51.148;7.014;2022-12-07T14:06:17;3.80;;;2.30;;
6755;SDS011;3415;51.148;7.014;2022-12-07T14:09:06;12.60;;;4.20;;
6755;SDS011;3415;51.148;7.014;2022-12-07T14:11:44;8.00;;;3.77;;
6755;SDS011;3415;51.148;7.014;2022-12-07T14:14:14;7.20;;;3.93;;
6755;SDS011;3415;51.148;7.014;2022-12-07T14:16:54;7.40;;;3.43;;
6755;SDS011;3415;51.148;7.014;2022-12-07T14:19:43;3.83;;;2.27;;
6755;SDS011;3415;51.148;7.014;2022-12-07T14:22:22;5.83;;;2.53;;
6755;SDS011;3415;51.148;7.014;2022-12-07T14:25:00;6.77;;;2.83;;
6755;SDS011;3415;51.148;7.014;2022-12-07T14:27:49;7.03;;;2.80;;
6755;SDS011;3415;51.148;7.014;2022-12-07T14:30:23;19.60;;;3.00;;
6755;SDS011;3415;51.148;7.014;2022-12-07T14:32:53;11.23;;;4.10;;
6755;SDS011;3415;51.148;7.014;2022-12-07T14:35:24;3.93;;;2.70;;
6755;SDS011;3415;51.148;7.014;2022-12-07T14:37:52;5.37;;;3.77;;
6755;SDS011;3415;51.148;7.014;2022-12-07T14:40:21;7.03;;;3.87;;
6755;SDS011;3415;51.148;7.014;2022-12-07T14:42:52;4.20;;;2.00;;
6755;SDS011;3415;51.148;7.014;2022-12-07T14:45:23;6.80;;;3.50;;
6755;SDS011;3415;51.148;7.014;2022-12-07T14:47:50;6.70;;;4.20;;
6755;SDS011;3415;51.148;7.014;2022-12-07T14:50:18;10.33;;;3.57;;
6755;SDS011;3415;51.148;7.014;2022-12-07T14:52:48;4.43;;;2.50;;
6755;SDS011;3415;51.148;7.014;2022-12-07T14:55:19;13.50;;;3.60;;
6755;SDS011;3415;51.148;7.014;2022-12-07T14:57:51;4.57;;;2.40;;
6755;SDS011;3415;51.148;7.014;2022-12-07T15:00:18;8.80;;;4.17;;
6755;SDS011;3415;51.148;7.014;2022-12-07T15:02:47;9.03;;;2.70;;
6755;SDS011;3415;51.148;7.014;2022-12-07T15:05:15;6.30;;;2.53;;
6755;SDS011;3415;51.148;7.014;2022-12-07T15:07:43;7.20;;;2.93;;
6755;SDS011;3415;51.148;7.014;2022-12-07T15:10:13;5.47;;;2.37;;
6755;SDS011;3415;51.148;7.014;2022-12-07T15:12:45;6.77;;;2.73;;
6755;SDS011;3415;51.148;7.014;2022-12-07T15:15:12;11.70;;;2.80;;
6755;SDS011;3415;51.148;7.014;2022-12-07T15:17:40;10.33;;;3.60;;
6755;SDS011;3415;51.148;7.014;2022-12-07T15:20:08;10.63;;;2.90;;
6755;SDS011;3415;51.148;7.014;2022-12-07T15:22:38;9.90;;;3.83;;
6755;SDS011;3415;51.148;7.014;2022-12-07T15:25:06;6.23;;;2.70;;
6755;SDS011;3415;51.148;7.014;2022-12-07T15:27:34;6.53;;;2.80;;
6755;SDS011;3415;51.148;7.014;2022-12-07T15:30:03;10.23;;;2.87;;
6755;SDS011;3415;51.148;7.014;2022-12-07T15:32:32;9.90;;;3.43;;
6755;SDS011;3415;51.148;7.014;2022-12-07T15:34:59;6.77;;;2.80;;
6755;SDS011;3415;51.148;7.014;2022-12-07T15:37:26;5.40;;;2.60;;
6755;SDS011;3415;51.148;7.014;2022-12-07T15:39:53;6.90;;;2.50;;
6755;SDS011;3415;51.148;7.014;2022-12-07T15:42:20;4.33;;;2.60;;
6755;SDS011;3415;51.148;7.014;2022-12-07T15:44:47;3.30;;;2.60;;
6755;SDS011;3415;51.148;7.014;2022-12-07T15:47:33;6.23;;;3.47;;
6755;SDS011;3415;51.148;7.014;2022-12-07T15:50:02;11.60;;;3.47;;
6755;SDS011;3415;51.148;7.014;2022-12-07T15:52:30;12.07;;;3.77;;
6755;SDS011;3415;51.148;7.014;2022-12-07T15:54:57;7.20;;;2.93;;
6755;SDS011;3415;51.148;7.014;2022-12-07T15:57:27;6.50;;;3.10;;
6755;SDS011;3415;51.148;7.014;2022-12-07T15:59:55;6.97;;;3.57;;
6755;SDS011;3415;51.148;7.014;2022-12-07T16:02:22;9.10;;;4.23;;
6755;SDS011;3415;51.148;7.014;2022-12-07T16:04:51;10.03;;;4.30;;